createdAt,value
2019-02-22T00:00:47.189Z,2.10
2019-02-22T00:03:17.899Z,2.40
2019-02-22T00:05:48.476Z,2.97
2019-02-22T00:08:19.464Z,1.55
2019-02-22T00:10:49.998Z,2.40
2019-02-22T00:13:20.620Z,2.20
2019-02-22T00:15:51.205Z,2.20
2019-02-22T00:18:22.208Z,1.57
2019-02-22T00:20:52.834Z,3.07
2019-02-22T00:23:23.348Z,1.65
2019-02-22T00:25:54.025Z,2.97
2019-02-22T00:28:24.736Z,3.58
2019-02-22T00:30:55.585Z,2.00
2019-02-22T00:33:26.497Z,2.27
2019-02-22T00:35:57.435Z,2.37
2019-02-22T00:38:29.288Z,2.87
2019-02-22T00:41:00.280Z,1.90
2019-02-22T00:43:31.384Z,2.50
2019-02-22T00:46:02.444Z,1.90
2019-02-22T00:48:33.477Z,2.33
2019-02-22T00:51:04.017Z,2.40
2019-02-22T00:53:34.532Z,2.77
2019-02-22T00:56:05.172Z,2.43
2019-02-22T00:58:35.842Z,1.45
2019-02-22T01:01:07.474Z,2.95
2019-02-22T01:03:38.813Z,4.10
2019-02-22T01:06:09.468Z,1.60
2019-02-22T01:08:40.438Z,2.30
2019-02-22T01:11:11.548Z,1.60
2019-02-22T01:13:42.567Z,2.25
2019-02-22T01:16:13.092Z,5.22
2019-02-22T01:18:43.724Z,1.53
2019-02-22T01:21:14.250Z,1.83
2019-02-22T01:23:44.803Z,2.92
2019-02-22T01:26:15.736Z,2.23
2019-02-22T01:28:46.679Z,3.20
2019-02-22T01:31:17.622Z,2.87
2019-02-22T01:33:48.766Z,3.10
2019-02-22T01:36:20.729Z,2.00
2019-02-22T01:38:51.771Z,1.95
2019-02-22T01:41:22.709Z,1.40
2019-02-22T01:43:53.639Z,2.63
2019-02-22T01:46:24.514Z,3.40
2019-02-22T01:48:55.616Z,2.13
2019-02-22T01:51:26.163Z,1.43
2019-02-22T01:53:57.257Z,3.90
2019-02-22T01:56:29.276Z,1.75
2019-02-22T01:59:01.330Z,1.50
2019-02-22T02:01:32.280Z,5.00
2019-02-22T02:04:02.880Z,1.70
2019-02-22T02:06:33.448Z,4.97
2019-02-22T02:09:05.041Z,2.13
2019-02-22T02:11:35.827Z,2.03
2019-02-22T02:14:06.312Z,5.03
2019-02-22T02:16:36.840Z,2.20
2019-02-22T02:19:07.350Z,2.23
2019-02-22T02:21:37.861Z,1.27
2019-02-22T02:24:08.475Z,4.83
2019-02-22T02:26:40.228Z,3.40
2019-02-22T02:29:10.869Z,3.65
2019-02-22T02:31:41.504Z,1.90
2019-02-22T02:34:12.132Z,3.75
2019-02-22T02:36:42.653Z,1.45
2019-02-22T02:39:13.274Z,2.42
2019-02-22T02:41:43.852Z,1.93
2019-02-22T02:44:14.457Z,4.45
2019-02-22T02:46:44.993Z,1.83
2019-02-22T02:49:15.591Z,2.33
2019-02-22T02:51:46.198Z,2.42
2019-02-22T02:54:16.791Z,1.83
2019-02-22T02:56:47.428Z,2.83
2019-02-22T02:59:18.033Z,4.22
2019-02-22T03:01:48.732Z,2.40
2019-02-22T03:04:19.634Z,1.80
2019-02-22T03:07:04.971Z,3.50
2019-02-22T03:09:35.948Z,2.70
2019-02-22T03:12:06.889Z,1.93
2019-02-22T03:14:37.828Z,1.77
2019-02-22T03:17:08.767Z,1.77
2019-02-22T03:19:39.808Z,2.95
2019-02-22T03:22:10.870Z,2.80
2019-02-22T03:24:41.905Z,2.43
2019-02-22T03:27:12.853Z,2.03
2019-02-22T03:29:43.830Z,2.33
2019-02-22T03:32:14.753Z,2.90
2019-02-22T03:34:45.325Z,4.40
2019-02-22T03:37:15.920Z,3.98
2019-02-22T03:39:46.436Z,5.35
2019-02-22T03:42:16.968Z,1.77
2019-02-22T03:44:47.872Z,3.22
2019-02-22T03:47:19.843Z,1.87
2019-02-22T03:49:50.891Z,1.93
2019-02-22T03:52:29.113Z,2.97
2019-02-22T03:55:00.433Z,1.77
2019-02-22T03:57:32.546Z,3.00
2019-02-22T04:00:03.504Z,3.10
2019-02-22T04:02:35.962Z,4.40
2019-02-22T04:05:06.883Z,1.75
2019-02-22T04:07:37.940Z,4.42
2019-02-22T04:10:09.189Z,3.00
2019-02-22T04:12:40.232Z,3.43
2019-02-22T04:15:11.241Z,3.17
2019-02-22T04:17:42.449Z,3.87
2019-02-22T04:20:13.434Z,3.37
2019-02-22T04:22:44.633Z,4.03
2019-02-22T04:25:15.080Z,2.77
2019-02-22T04:27:45.690Z,2.95
2019-02-22T04:30:17.249Z,3.40
2019-02-22T04:32:47.798Z,2.87
2019-02-22T04:35:18.460Z,1.87
2019-02-22T04:37:49.122Z,1.50
2019-02-22T04:40:19.773Z,2.95
2019-02-22T04:42:50.481Z,2.00
2019-02-22T04:45:21.600Z,3.43
2019-02-22T04:47:52.210Z,2.98
2019-02-22T04:50:23.263Z,3.25
2019-02-22T04:52:54.228Z,2.37
2019-02-22T04:55:25.165Z,4.25
2019-02-22T04:57:56.119Z,6.62
2019-02-22T05:00:27.457Z,7.17
2019-02-22T05:02:58.608Z,8.17
2019-02-22T05:05:29.230Z,11.78
2019-02-22T05:07:59.802Z,14.20
2019-02-22T05:10:30.396Z,81.67
2019-02-22T05:13:01.040Z,13.07
2019-02-22T05:15:31.975Z,10.55
2019-02-22T05:18:02.613Z,11.83
2019-02-22T05:20:33.593Z,8.27
2019-02-22T05:23:07.438Z,10.20
2019-02-22T05:25:37.370Z,11.37
2019-02-22T05:28:09.429Z,5.37
2019-02-22T05:30:40.174Z,7.30
2019-02-22T05:33:11.175Z,5.13
2019-02-22T05:35:43.061Z,4.35
2019-02-22T05:38:14.020Z,7.60
2019-02-22T05:40:48.070Z,4.97
2019-02-22T05:43:18.884Z,3.95
2019-02-22T05:45:49.481Z,7.22
2019-02-22T05:48:20.669Z,2.57
2019-02-22T05:50:51.574Z,4.77
2019-02-22T05:53:22.638Z,3.77
2019-02-22T05:55:53.554Z,5.60
2019-02-22T05:58:24.085Z,4.43
2019-02-22T06:00:55.035Z,6.15
2019-02-22T06:03:25.994Z,5.35
2019-02-22T06:05:56.603Z,31.25
2019-02-22T06:08:28.698Z,6.00
2019-02-22T06:10:59.581Z,5.37
2019-02-22T06:13:30.445Z,8.18
2019-02-22T06:16:01.121Z,11.27
2019-02-22T06:18:32.236Z,6.08
2019-02-22T06:21:03.153Z,10.40
2019-02-22T06:23:34.228Z,5.78
2019-02-22T06:26:05.149Z,5.00
2019-02-22T06:28:36.103Z,6.40
2019-02-22T06:31:06.567Z,4.35
2019-02-22T06:33:37.472Z,7.10
2019-02-22T06:36:08.404Z,3.80
2019-02-22T06:38:39.057Z,10.58
2019-02-22T06:41:09.950Z,3.85
2019-02-22T06:43:40.441Z,6.60
2019-02-22T06:46:10.918Z,4.62
2019-02-22T06:48:41.496Z,5.95
2019-02-22T06:51:13.127Z,4.25
2019-02-22T06:53:44.201Z,6.17
2019-02-22T06:56:14.670Z,5.15
2019-02-22T06:58:45.182Z,7.22
2019-02-22T07:01:15.746Z,4.97
2019-02-22T07:03:46.328Z,5.47
2019-02-22T07:06:17.417Z,4.53
2019-02-22T07:08:48.476Z,3.70
2019-02-22T07:11:26.450Z,5.03
2019-02-22T07:13:57.308Z,8.00
2019-02-22T07:16:28.373Z,7.97
2019-02-22T07:19:00.351Z,6.78
2019-02-22T07:21:43.651Z,6.72
2019-02-22T07:24:03.876Z,7.20
2019-02-22T07:26:34.976Z,6.78
2019-02-22T07:29:05.930Z,7.42
2019-02-22T07:31:36.499Z,8.68
2019-02-22T07:34:08.225Z,6.30
2019-02-22T07:36:38.747Z,6.75
2019-02-22T07:39:09.720Z,5.45
2019-02-22T07:41:40.815Z,5.70
2019-02-22T07:44:11.684Z,3.95
2019-02-22T07:46:42.608Z,3.72
2019-02-22T07:49:20.732Z,4.45
2019-02-22T07:51:51.644Z,5.30
2019-02-22T07:54:22.496Z,5.15
2019-02-22T07:56:53.368Z,3.22
2019-02-22T07:59:23.980Z,6.83
2019-02-22T08:01:54.913Z,4.87
2019-02-22T08:04:26.380Z,3.90
2019-02-22T08:06:56.992Z,4.37
2019-02-22T08:09:27.491Z,7.53
2019-02-22T08:11:57.982Z,4.90
2019-02-22T08:14:28.614Z,5.35
2019-02-22T08:16:59.412Z,5.70
2019-02-22T08:19:30.465Z,3.83
2019-02-22T08:22:03.405Z,4.85
2019-02-22T08:24:33.777Z,4.67
2019-02-22T08:27:04.257Z,5.65
2019-02-22T08:29:35.016Z,3.37
2019-02-22T08:32:05.876Z,3.75
2019-02-22T08:34:36.439Z,10.45
2019-02-22T08:37:06.990Z,6.90
2019-02-22T08:39:37.676Z,2.70
2019-02-22T08:42:08.244Z,10.72
2019-02-22T08:44:38.976Z,7.15
2019-02-22T08:47:09.593Z,6.25
2019-02-22T08:49:40.213Z,3.12
2019-02-22T08:52:11.124Z,3.67
2019-02-22T08:54:47.090Z,5.17
2019-02-22T08:57:14.769Z,8.95
2019-02-22T08:59:45.852Z,4.72
2019-02-22T09:02:16.825Z,5.53
2019-02-22T09:04:47.908Z,3.90
2019-02-22T09:07:19.129Z,8.88
2019-02-22T09:09:50.219Z,3.98
2019-02-22T09:12:21.115Z,4.45
2019-02-22T09:14:52.068Z,7.90
2019-02-22T09:17:22.983Z,7.30
2019-02-22T09:19:53.624Z,13.55
2019-02-22T09:22:24.945Z,10.32
2019-02-22T09:24:56.144Z,5.58
2019-02-22T09:27:27.048Z,3.72
2019-02-22T09:29:59.021Z,2.75
2019-02-22T09:32:29.704Z,6.87
2019-02-22T09:35:01.547Z,6.25
2019-02-22T09:37:32.111Z,6.20
2019-02-22T09:40:02.784Z,8.08
2019-02-22T09:42:33.844Z,11.78
2019-02-22T09:45:05.108Z,4.33
2019-02-22T09:47:35.916Z,3.52
2019-02-22T09:50:08.475Z,5.30
2019-02-22T09:52:39.364Z,11.33
2019-02-22T09:55:11.518Z,4.33
2019-02-22T09:57:42.433Z,3.08
2019-02-22T10:00:13.627Z,2.87
2019-02-22T10:02:44.957Z,5.15
2019-02-22T10:05:15.900Z,5.03
2019-02-22T10:07:47.053Z,3.35
2019-02-22T10:10:17.556Z,9.88
2019-02-22T10:12:48.509Z,7.00
2019-02-22T10:15:19.446Z,2.33
2019-02-22T10:17:50.367Z,4.35
2019-02-22T10:20:21.532Z,2.83
2019-02-22T10:22:52.451Z,1.90
2019-02-22T10:25:23.512Z,6.62
2019-02-22T10:27:54.129Z,2.58
2019-02-22T10:30:24.672Z,5.15
2019-02-22T10:32:55.249Z,3.95
2019-02-22T10:35:25.793Z,3.58
2019-02-22T10:37:56.453Z,5.42
2019-02-22T10:40:27.087Z,4.08
2019-02-22T10:42:57.715Z,3.30
2019-02-22T10:45:28.257Z,4.37
2019-02-22T10:47:58.783Z,5.55
2019-02-22T10:50:29.336Z,4.40
2019-02-22T10:53:02.383Z,5.25
2019-02-22T10:55:32.171Z,6.30
2019-02-22T10:58:03.314Z,5.05
2019-02-22T11:00:34.225Z,4.97
2019-02-22T11:03:04.829Z,7.17
2019-02-22T11:05:35.424Z,3.60
2019-02-22T11:08:06.605Z,4.08
2019-02-22T11:10:37.862Z,8.18
2019-02-22T11:13:08.800Z,6.20
2019-02-22T11:15:39.365Z,6.28
2019-02-22T11:18:09.941Z,2.05
2019-02-22T11:20:40.599Z,6.67
2019-02-22T11:23:11.116Z,7.42
2019-02-22T11:25:41.763Z,2.95
2019-02-22T11:28:12.341Z,3.92
2019-02-22T11:30:42.888Z,5.47
2019-02-22T11:33:13.591Z,6.55
2019-02-22T11:35:44.155Z,6.33
2019-02-22T11:38:14.719Z,2.27
2019-02-22T11:40:45.549Z,8.95
2019-02-22T11:43:16.267Z,6.92
2019-02-22T11:45:47.028Z,5.20
2019-02-22T11:48:17.672Z,4.00
2019-02-22T11:50:48.272Z,16.55
2019-02-22T11:53:18.779Z,3.20
2019-02-22T11:55:49.469Z,4.58
2019-02-22T11:58:20.052Z,4.75
2019-02-22T12:00:50.634Z,5.37
2019-02-22T12:03:24.527Z,7.62
2019-02-22T12:05:53.540Z,4.35
2019-02-22T12:08:24.133Z,5.92
2019-02-22T12:10:54.704Z,10.00
2019-02-22T12:13:25.225Z,5.92
2019-02-22T12:15:55.960Z,3.52
2019-02-22T12:18:26.585Z,5.62
2019-02-22T12:20:57.216Z,4.47
2019-02-22T12:23:27.748Z,6.58
2019-02-22T12:25:58.817Z,4.20
2019-02-22T12:28:29.323Z,8.95
2019-02-22T12:30:59.965Z,4.72
2019-02-22T12:33:30.581Z,6.30
2019-02-22T12:36:01.236Z,3.50
2019-02-22T12:38:33.589Z,6.60
2019-02-22T12:41:04.456Z,5.33
2019-02-22T12:43:35.358Z,7.90
2019-02-22T12:46:06.320Z,11.68
2019-02-22T12:48:36.848Z,13.85
2019-02-22T12:51:07.412Z,5.55
2019-02-22T12:53:37.897Z,2.42
2019-02-22T12:56:08.861Z,20.65
2019-02-22T12:58:39.698Z,10.88
2019-02-22T13:01:10.650Z,9.75
2019-02-22T13:03:41.455Z,4.25
2019-02-22T13:06:12.401Z,3.52
2019-02-22T13:08:43.432Z,6.95
2019-02-22T13:11:14.089Z,5.87
2019-02-22T13:13:44.592Z,10.53
2019-02-22T13:16:15.094Z,4.12
2019-02-22T13:18:46.044Z,8.48
2019-02-22T13:21:17.044Z,6.10
2019-02-22T13:23:47.863Z,3.10
2019-02-22T13:26:18.368Z,7.62
2019-02-22T13:28:49.208Z,22.80
2019-02-22T13:31:29.699Z,7.42
2019-02-22T13:33:52.441Z,4.80
2019-02-22T13:36:23.309Z,13.13
2019-02-22T13:38:53.900Z,13.53
2019-02-22T13:41:24.432Z,20.90
2019-02-22T13:43:54.958Z,12.95
2019-02-22T13:46:26.602Z,12.85
2019-02-22T13:48:58.479Z,4.37
2019-02-22T13:51:29.648Z,9.95
2019-02-22T13:54:00.869Z,7.70
2019-02-22T13:56:32.030Z,24.37
2019-02-22T13:59:03.156Z,8.40
2019-02-22T14:01:34.224Z,7.72
2019-02-22T14:04:05.253Z,13.28
2019-02-22T14:06:35.757Z,10.03
2019-02-22T14:09:07.386Z,7.20
2019-02-22T14:11:39.517Z,3.70
2019-02-22T14:14:10.033Z,8.83
2019-02-22T14:16:42.136Z,7.55
2019-02-22T14:19:13.028Z,5.62
2019-02-22T14:21:44.000Z,6.05
2019-02-22T14:24:14.505Z,3.83
2019-02-22T14:26:45.469Z,20.10
2019-02-22T14:29:15.940Z,4.87
2019-02-22T14:31:46.426Z,5.87
2019-02-22T14:34:16.904Z,4.78
2019-02-22T14:36:47.497Z,6.23
2019-02-22T14:39:19.648Z,3.47
2019-02-22T14:41:50.197Z,5.08
2019-02-22T14:44:20.728Z,10.30
2019-02-22T14:46:51.334Z,6.25
2019-02-22T14:49:21.853Z,8.40
2019-02-22T14:51:52.425Z,7.75
2019-02-22T14:54:23.042Z,8.43
2019-02-22T14:56:53.722Z,5.40
2019-02-22T14:59:25.746Z,7.35
2019-02-22T15:01:57.920Z,2.33
2019-02-22T15:04:28.448Z,7.42
2019-02-22T15:06:58.972Z,4.97
2019-02-22T15:09:29.537Z,5.45
2019-02-22T15:12:00.145Z,6.00
2019-02-22T15:14:30.668Z,6.35
2019-02-22T15:17:15.424Z,8.28
2019-02-22T15:19:46.086Z,9.90
2019-02-22T15:22:16.629Z,5.15
2019-02-22T15:24:48.306Z,10.65
2019-02-22T15:27:19.015Z,10.72
2019-02-22T15:29:49.526Z,6.65
2019-02-22T15:32:20.204Z,6.70
2019-02-22T15:34:50.895Z,5.85
2019-02-22T15:37:21.498Z,5.08
2019-02-22T15:39:52.159Z,10.75
2019-02-22T15:42:22.790Z,7.50
2019-02-22T15:44:53.375Z,6.22
2019-02-22T15:47:24.137Z,5.67
2019-02-22T15:49:54.761Z,8.23
2019-02-22T15:52:25.396Z,7.55
2019-02-22T15:54:55.976Z,5.97
2019-02-22T15:57:26.646Z,9.13
2019-02-22T15:59:57.698Z,6.05
2019-02-22T16:02:29.327Z,8.23
2019-02-22T16:05:06.865Z,6.75
2019-02-22T16:07:44.569Z,7.97
2019-02-22T16:10:09.841Z,7.33
2019-02-22T16:12:40.944Z,7.17
2019-02-22T16:15:11.712Z,11.25
2019-02-22T16:17:42.516Z,6.25
2019-02-22T16:20:13.342Z,8.18
2019-02-22T16:22:44.060Z,7.60
2019-02-22T16:25:19.766Z,6.55
2019-02-22T16:27:47.082Z,7.35
2019-02-22T16:30:20.128Z,6.78
2019-02-22T16:32:50.867Z,9.05
2019-02-22T16:35:21.545Z,5.70
2019-02-22T16:37:52.237Z,10.72
2019-02-22T16:40:22.896Z,6.95
2019-02-22T16:42:53.568Z,5.90
2019-02-22T16:45:24.168Z,14.13
2019-02-22T16:47:54.908Z,15.28
2019-02-22T16:50:25.654Z,15.30
2019-02-22T16:52:56.438Z,20.57
2019-02-22T16:55:27.105Z,19.70
2019-02-22T16:57:57.807Z,12.30
2019-02-22T17:00:28.430Z,10.93
2019-02-22T17:03:01.584Z,12.93
2019-02-22T17:05:32.212Z,18.10
2019-02-22T17:08:02.859Z,17.27
2019-02-22T17:10:34.500Z,15.70
2019-02-22T17:13:05.165Z,16.33
2019-02-22T17:15:35.786Z,19.30
2019-02-22T17:18:06.434Z,21.48
2019-02-22T17:20:37.032Z,22.05
2019-02-22T17:23:07.827Z,22.65
2019-02-22T17:25:38.393Z,23.20
2019-02-22T17:28:09.024Z,15.60
2019-02-22T17:30:39.552Z,13.30
2019-02-22T17:33:10.234Z,15.85
2019-02-22T17:35:40.927Z,18.23
2019-02-22T17:38:11.565Z,12.90
2019-02-22T17:40:43.320Z,17.62
2019-02-22T17:43:13.982Z,13.50
2019-02-22T17:45:44.652Z,21.75
2019-02-22T17:48:15.373Z,19.45
2019-02-22T17:50:46.029Z,20.00
2019-02-22T17:53:16.611Z,15.25
2019-02-22T17:55:48.110Z,18.12
2019-02-22T17:58:24.538Z,21.40
2019-02-22T18:00:51.060Z,16.52
2019-02-22T18:03:21.754Z,17.40
2019-02-22T18:05:54.949Z,16.23
2019-02-22T18:08:25.547Z,17.35
2019-02-22T18:10:56.206Z,14.98
2019-02-22T18:13:26.859Z,17.05
2019-02-22T18:15:57.436Z,17.62
2019-02-22T18:18:28.070Z,16.00
2019-02-22T18:20:58.717Z,20.57
2019-02-22T18:23:30.401Z,17.87
2019-02-22T18:26:01.015Z,16.15
2019-02-22T18:28:31.605Z,17.10
2019-02-22T18:31:02.306Z,17.70
2019-02-22T18:33:32.992Z,19.62
2019-02-22T18:36:03.673Z,19.30
2019-02-22T18:38:34.305Z,16.77
2019-02-22T18:41:04.900Z,18.17
2019-02-22T18:43:35.550Z,18.30
2019-02-22T18:46:06.186Z,20.30
2019-02-22T18:48:38.017Z,14.83
2019-02-22T18:51:08.602Z,36.80
2019-02-22T18:53:39.375Z,38.13
2019-02-22T18:56:10.173Z,34.38
2019-02-22T18:58:40.819Z,31.85
2019-02-22T19:01:11.419Z,24.95
2019-02-22T19:03:42.076Z,29.63
2019-02-22T19:06:12.658Z,27.58
2019-02-22T19:08:43.337Z,23.90
2019-02-22T19:11:14.072Z,28.80
2019-02-22T19:13:44.704Z,26.30
2019-02-22T19:16:15.288Z,21.35
2019-02-22T19:18:45.893Z,26.37
2019-02-22T19:21:16.509Z,26.97
2019-02-22T19:23:47.127Z,25.55
2019-02-22T19:26:17.800Z,29.15
2019-02-22T19:28:48.483Z,25.95
2019-02-22T19:31:19.187Z,30.57
2019-02-22T19:33:52.072Z,23.35
2019-02-22T19:36:23.290Z,22.40
2019-02-22T19:38:54.015Z,23.40
2019-02-22T19:41:24.733Z,30.77
2019-02-22T19:43:55.366Z,24.75
2019-02-22T19:46:26.000Z,33.40
2019-02-22T19:48:56.636Z,29.40
2019-02-22T19:51:27.220Z,28.55
2019-02-22T19:53:57.901Z,28.17
2019-02-22T19:56:28.416Z,29.80
2019-02-22T19:58:59.138Z,26.55
2019-02-22T20:01:29.720Z,31.12
2019-02-22T20:04:00.441Z,34.30
2019-02-22T20:06:31.040Z,30.82
2019-02-22T20:09:01.696Z,31.55
2019-02-22T20:11:33.981Z,31.40
2019-02-22T20:14:04.603Z,28.32
2019-02-22T20:16:35.265Z,32.60
2019-02-22T20:19:05.985Z,33.98
2019-02-22T20:21:36.613Z,29.60
2019-02-22T20:24:07.178Z,27.62
2019-02-22T20:26:37.874Z,28.65
2019-02-22T20:29:08.476Z,28.62
2019-02-22T20:31:39.057Z,40.92
2019-02-22T20:34:09.631Z,29.02
2019-02-22T20:36:40.233Z,36.90
2019-02-22T20:39:10.881Z,32.13
2019-02-22T20:41:41.683Z,32.50
2019-02-22T20:44:16.048Z,32.17
2019-02-22T20:46:46.629Z,43.13
2019-02-22T20:49:17.261Z,35.80
2019-02-22T20:51:47.929Z,33.90
2019-02-22T20:54:18.621Z,39.75
2019-02-22T20:56:49.264Z,33.78
2019-02-22T20:59:20.038Z,34.65
2019-02-22T21:01:50.692Z,38.10
2019-02-22T21:04:21.350Z,33.18
2019-02-22T21:06:51.948Z,37.33
2019-02-22T21:09:22.609Z,27.30
2019-02-22T21:11:53.176Z,36.80
2019-02-22T21:14:25.868Z,36.85
2019-02-22T21:16:58.152Z,37.38
2019-02-22T21:19:28.859Z,35.05
2019-02-22T21:21:59.413Z,24.52
2019-02-22T21:24:29.990Z,19.57
2019-02-22T21:27:00.638Z,22.98
2019-02-22T21:29:31.285Z,21.95
2019-02-22T21:32:02.716Z,23.27
2019-02-22T21:34:33.520Z,22.93
2019-02-22T21:37:04.440Z,23.02
2019-02-22T21:39:35.152Z,23.22
2019-02-22T21:42:05.844Z,27.77
2019-02-22T21:44:36.885Z,31.12
2019-02-22T21:47:07.593Z,36.28
2019-02-22T21:49:38.608Z,30.80
2019-02-22T21:52:09.238Z,28.67
2019-02-22T21:54:39.792Z,27.32
2019-02-22T21:57:10.353Z,20.82
2019-02-22T21:59:41.016Z,32.53
2019-02-22T22:02:11.634Z,29.90
2019-02-22T22:04:42.210Z,33.83
2019-02-22T22:07:12.835Z,38.23
2019-02-22T22:09:43.527Z,34.95
2019-02-22T22:12:14.183Z,36.00
2019-02-22T22:14:44.814Z,36.30
2019-02-22T22:17:15.344Z,34.05
2019-02-22T22:19:45.980Z,30.75
2019-02-22T22:22:16.573Z,43.85
2019-02-22T22:24:48.265Z,38.70
2019-02-22T22:27:18.870Z,38.25
2019-02-22T22:29:50.476Z,44.13
2019-02-22T22:32:21.064Z,36.28
2019-02-22T22:34:51.684Z,34.37
2019-02-22T22:37:22.308Z,48.40
2019-02-22T22:39:52.981Z,39.15
2019-02-22T22:42:23.596Z,37.85
2019-02-22T22:44:54.189Z,39.30
2019-02-22T22:47:25.118Z,34.67
2019-02-22T22:49:55.715Z,35.88
2019-02-22T22:52:26.312Z,31.80
2019-02-22T22:54:57.001Z,27.35
2019-02-22T22:57:27.576Z,27.05
2019-02-22T22:59:58.264Z,25.15
2019-02-22T23:02:28.988Z,27.37
2019-02-22T23:04:59.617Z,24.87
2019-02-22T23:07:31.409Z,25.32
2019-02-22T23:10:02.086Z,24.12
2019-02-22T23:12:34.278Z,21.93
2019-02-22T23:15:05.204Z,21.48
2019-02-22T23:17:35.891Z,22.37
2019-02-22T23:20:06.605Z,25.90
2019-02-22T23:22:37.331Z,21.37
2019-02-22T23:25:08.003Z,18.48
2019-02-22T23:27:38.622Z,22.10
2019-02-22T23:30:09.448Z,19.87
2019-02-22T23:32:40.108Z,20.08
2019-02-22T23:35:10.709Z,22.17
2019-02-22T23:37:41.325Z,19.97
2019-02-22T23:40:11.998Z,21.97
2019-02-22T23:42:42.597Z,13.30
2019-02-22T23:45:13.228Z,14.60
2019-02-22T23:47:43.732Z,16.97
2019-02-22T23:50:14.420Z,18.87
2019-02-22T23:52:45.037Z,14.13
2019-02-22T23:55:15.702Z,15.15
2019-02-22T23:57:46.390Z,12.58
